sensor_id;sensor_type;location;lat;lon;timestamp;pressure;altitude;pressure_sealevel;temperature;humidity
21100;BME280;10708;50.824;4.408;2023-04-02T00:00:24;100085.09;;;8.56;100.00
21100;BME280;10708;50.824;4.408;2023-04-02T00:05:30;100099.44;;;8.46;100.00
21100;BME280;10708;50.824;4.408;2023-04-02T00:10:37;100106.75;;;8.38;100.00
21100;BME280;10708;50.824;4.408;2023-04-02T00:15:42;100112.75;;;8.40;100.00
21100;BME280;10708;50.824;4.408;2023-04-02T00:20:47;100121.09;;;8.26;100.00
21100;BME280;10708;50.824;4.408;2023-04-02T00:25:53;100122.69;;;8.30;100.00
21100;BME280;10708;50.824;4.408;2023-04-02T00:30:58;100128.41;;;8.17;100.00
21100;BME280;10708;50.824;4.408;2023-04-02T00:36:05;100130.50;;;8.05;100.00
21100;BME280;10708;50.824;4.408;2023-04-02T00:41:13;100141.09;;;8.02;100.00
21100;BME280;10708;50.824;4.408;2023-04-02T00:46:19;100142.19;;;7.95;100.00
21100;BME280;10708;50.824;4.408;2023-04-02T00:51:27;100158.09;;;7.89;100.00
21100;BME280;10708;50.824;4.408;2023-04-02T00:56:35;100164.44;;;7.82;100.00
21100;BME280;10708;50.824;4.408;2023-04-02T01:01:39;100172.53;;;7.76;100.00
21100;BME280;10708;50.824;4.408;2023-04-02T01:06:42;100169.75;;;7.81;100.00
21100;BME280;10708;50.824;4.408;2023-04-02T01:11:57;100174.38;;;7.72;100.00
21100;BME280;10708;50.824;4.408;2023-04-02T01:17:11;100189.41;;;7.66;100.00
21100;BME280;10708;50.824;4.408;2023-04-02T01:22:22;100199.13;;;7.62;100.00
21100;BME280;10708;50.824;4.408;2023-04-02T01:27:38;100205.31;;;7.60;100.00
21100;BME280;10708;50.824;4.408;2023-04-02T01:32:44;100212.38;;;7.58;100.00
21100;BME280;10708;50.824;4.408;2023-04-02T01:37:51;100217.56;;;7.59;100.00
21100;BME280;10708;50.824;4.408;2023-04-02T01:43:04;100240.28;;;7.59;100.00
21100;BME280;10708;50.824;4.408;2023-04-02T01:48:14;100243.88;;;7.56;100.00
21100;BME280;10708;50.824;4.408;2023-04-02T01:53:18;100257.84;;;7.57;100.00
21100;BME280;10708;50.824;4.408;2023-04-02T01:58:23;100255.28;;;7.54;100.00
21100;BME280;10708;50.824;4.408;2023-04-02T02:03:28;100264.28;;;7.45;100.00
21100;BME280;10708;50.824;4.408;2023-04-02T02:08:36;100274.75;;;7.45;100.00
21100;BME280;10708;50.824;4.408;2023-04-02T02:13:39;100284.63;;;7.35;100.00
21100;BME280;10708;50.824;4.408;2023-04-02T02:18:50;100295.94;;;7.37;100.00
21100;BME280;10708;50.824;4.408;2023-04-02T02:23:55;100290.72;;;7.36;100.00
21100;BME280;10708;50.824;4.408;2023-04-02T02:28:58;100302.94;;;7.37;100.00
21100;BME280;10708;50.824;4.408;2023-04-02T02:34:08;100313.25;;;7.41;100.00
21100;BME280;10708;50.824;4.408;2023-04-02T02:39:18;100323.84;;;7.38;100.00
21100;BME280;10708;50.824;4.408;2023-04-02T02:44:24;100325.88;;;7.27;100.00
21100;BME280;10708;50.824;4.408;2023-04-02T02:49:31;100330.34;;;7.24;100.00
21100;BME280;10708;50.824;4.408;2023-04-02T02:54:37;100348.66;;;7.24;100.00
21100;BME280;10708;50.824;4.408;2023-04-02T02:59:41;100363.69;;;7.17;100.00
21100;BME280;10708;50.824;4.408;2023-04-02T03:04:49;100374.19;;;7.16;100.00
21100;BME280;10708;50.824;4.408;2023-04-02T03:09:59;100371.88;;;7.03;100.00
21100;BME280;10708;50.824;4.408;2023-04-02T03:15:10;100379.69;;;7.05;100.00
21100;BME280;10708;50.824;4.408;2023-04-02T03:20:21;100388.63;;;6.96;100.00
21100;BME280;10708;50.824;4.408;2023-04-02T03:25:33;100405.31;;;6.91;100.00
21100;BME280;10708;50.824;4.408;2023-04-02T03:30:41;100415.06;;;6.86;100.00
21100;BME280;10708;50.824;4.408;2023-04-02T03:35:53;100427.25;;;6.87;100.00
21100;BME280;10708;50.824;4.408;2023-04-02T03:41:03;100430.13;;;6.76;100.00
21100;BME280;10708;50.824;4.408;2023-04-02T03:46:13;100447.47;;;6.80;100.00
21100;BME280;10708;50.824;4.408;2023-04-02T03:51:23;100446.66;;;6.78;100.00
21100;BME280;10708;50.824;4.408;2023-04-02T03:56:30;100452.00;;;6.72;100.00
21100;BME280;10708;50.824;4.408;2023-04-02T04:01:44;100473.00;;;6.69;100.00
21100;BME280;10708;50.824;4.408;2023-04-02T04:06:50;100486.22;;;6.63;100.00
21100;BME280;10708;50.824;4.408;2023-04-02T04:12:01;100488.81;;;6.64;100.00
21100;BME280;10708;50.824;4.408;2023-04-02T04:17:13;100498.34;;;6.67;100.00
21100;BME280;10708;50.824;4.408;2023-04-02T04:22:26;100501.03;;;6.64;100.00
21100;BME280;10708;50.824;4.408;2023-04-02T04:27:37;100516.94;;;6.53;100.00
21100;BME280;10708;50.824;4.408;2023-04-02T04:32:46;100530.19;;;6.46;100.00
21100;BME280;10708;50.824;4.408;2023-04-02T04:37:55;100536.28;;;6.46;100.00
21100;BME280;10708;50.824;4.408;2023-04-02T04:43:02;100545.06;;;6.42;100.00
21100;BME280;10708;50.824;4.408;2023-04-02T04:48:07;100551.22;;;6.40;100.00
21100;BME280;10708;50.824;4.408;2023-04-02T04:53:15;100557.25;;;6.43;100.00
21100;BME280;10708;50.824;4.408;2023-04-02T04:58:23;100571.25;;;6.41;100.00
21100;BME280;10708;50.824;4.408;2023-04-02T05:03:31;100585.22;;;6.40;100.00
21100;BME280;10708;50.824;4.408;2023-04-02T05:08:40;100592.28;;;6.36;100.00
21100;BME280;10708;50.824;4.408;2023-04-02T05:13:49;100604.41;;;6.40;100.00
21100;BME280;10708;50.824;4.408;2023-04-02T05:18:57;100604.59;;;6.29;100.00
21100;BME280;10708;50.824;4.408;2023-04-02T05:24:25;100622.84;;;6.33;100.00
21100;BME280;10708;50.824;4.408;2023-04-02T05:29:33;100629.03;;;6.28;100.00
21100;BME280;10708;50.824;4.408;2023-04-02T05:34:40;100648.28;;;6.24;100.00
21100;BME280;10708;50.824;4.408;2023-04-02T05:39:51;100649.19;;;6.22;100.00
21100;BME280;10708;50.824;4.408;2023-04-02T05:45:00;100665.03;;;6.13;100.00
21100;BME280;10708;50.824;4.408;2023-04-02T05:50:23;100664.91;;;6.19;100.00
21100;BME280;10708;50.824;4.408;2023-04-02T05:55:36;100668.53;;;6.12;100.00
21100;BME280;10708;50.824;4.408;2023-04-02T06:00:49;100680.88;;;6.02;100.00
21100;BME280;10708;50.824;4.408;2023-04-02T06:05:57;100703.66;;;5.96;100.00
21100;BME280;10708;50.824;4.408;2023-04-02T06:11:07;100711.34;;;6.05;100.00
21100;BME280;10708;50.824;4.408;2023-04-02T06:16:12;100717.53;;;5.99;100.00
21100;BME280;10708;50.824;4.408;2023-04-02T06:21:16;100727.94;;;6.02;100.00
21100;BME280;10708;50.824;4.408;2023-04-02T06:26:24;100728.94;;;5.93;100.00
21100;BME280;10708;50.824;4.408;2023-04-02T06:31:34;100737.69;;;5.89;100.00
21100;BME280;10708;50.824;4.408;2023-04-02T06:36:37;100751.59;;;5.93;100.00
21100;BME280;10708;50.824;4.408;2023-04-02T06:41:41;100758.59;;;5.92;100.00
21100;BME280;10708;50.824;4.408;2023-04-02T06:46:46;100765.59;;;5.87;100.00
21100;BME280;10708;50.824;4.408;2023-04-02T06:51:52;100778.63;;;5.93;100.00
21100;BME280;10708;50.824;4.408;2023-04-02T06:56:56;100771.69;;;5.89;100.00
21100;BME280;10708;50.824;4.408;2023-04-02T07:02:00;100790.91;;;5.88;100.00
21100;BME280;10708;50.824;4.408;2023-04-02T07:07:16;100797.81;;;5.89;100.00
21100;BME280;10708;50.824;4.408;2023-04-02T07:12:22;100807.41;;;5.89;100.00
21100;BME280;10708;50.824;4.408;2023-04-02T07:17:25;100833.63;;;5.80;100.00
21100;BME280;10708;50.824;4.408;2023-04-02T07:22:27;100838.00;;;5.79;100.00
21100;BME280;10708;50.824;4.408;2023-04-02T07:27:31;100850.25;;;5.77;100.00
21100;BME280;10708;50.824;4.408;2023-04-02T07:32:37;100861.59;;;5.73;100.00
21100;BME280;10708;50.824;4.408;2023-04-02T07:37:39;100875.63;;;5.65;100.00
21100;BME280;10708;50.824;4.408;2023-04-02T07:42:43;100880.91;;;5.60;100.00
21100;BME280;10708;50.824;4.408;2023-04-02T07:47:46;100897.63;;;5.41;100.00
21100;BME280;10708;50.824;4.408;2023-04-02T07:52:48;100897.50;;;5.57;100.00
21100;BME280;10708;50.824;4.408;2023-04-02T07:57:54;100900.94;;;5.60;100.00
21100;BME280;10708;50.824;4.408;2023-04-02T08:02:56;100911.38;;;5.61;100.00
21100;BME280;10708;50.824;4.408;2023-04-02T08:07:59;100920.94;;;5.64;100.00
21100;BME280;10708;50.824;4.408;2023-04-02T08:13:02;100922.66;;;5.65;100.00
21100;BME280;10708;50.824;4.408;2023-04-02T08:18:05;100930.53;;;5.60;100.00
21100;BME280;10708;50.824;4.408;2023-04-02T08:23:12;100955.84;;;5.56;100.00
21100;BME280;10708;50.824;4.408;2023-04-02T08:28:19;100963.63;;;5.64;100.00
21100;BME280;10708;50.824;4.408;2023-04-02T08:33:21;100973.22;;;5.61;100.00
21100;BME280;10708;50.824;4.408;2023-04-02T08:38:24;100982.78;;;5.63;100.00
21100;BME280;10708;50.824;4.408;2023-04-02T08:43:53;100992.38;;;5.61;100.00
21100;BME280;10708;50.824;4.408;2023-04-02T08:49:00;101015.88;;;5.66;100.00
21100;BME280;10708;50.824;4.408;2023-04-02T08:54:08;101017.63;;;5.61;100.00
21100;BME280;10708;50.824;4.408;2023-04-02T08:59:20;101012.47;;;5.57;100.00
21100;BME280;10708;50.824;4.408;2023-04-02T09:04:26;101027.19;;;5.65;100.00
21100;BME280;10708;50.824;4.408;2023-04-02T09:09:33;101029.81;;;5.62;100.00
21100;BME280;10708;50.824;4.408;2023-04-02T09:14:42;101031.56;;;5.61;100.00
21100;BME280;10708;50.824;4.408;2023-04-02T09:19:52;101054.19;;;5.67;100.00
21100;BME280;10708;50.824;4.408;2023-04-02T09:24:57;101068.22;;;5.52;100.00
21100;BME280;10708;50.824;4.408;2023-04-02T09:30:04;101071.63;;;5.63;100.00
21100;BME280;10708;50.824;4.408;2023-04-02T09:35:12;101072.47;;;5.67;100.00
21100;BME280;10708;50.824;4.408;2023-04-02T09:40:20;101084.63;;;5.69;100.00
21100;BME280;10708;50.824;4.408;2023-04-02T09:45:26;101096.91;;;5.61;100.00
21100;BME280;10708;50.824;4.408;2023-04-02T09:50:30;101099.56;;;5.58;100.00
21100;BME280;10708;50.824;4.408;2023-04-02T09:55:33;101105.66;;;5.55;100.00
21100;BME280;10708;50.824;4.408;2023-04-02T10:00:38;101120.47;;;5.56;100.00
21100;BME280;10708;50.824;4.408;2023-04-02T10:05:43;101123.94;;;5.55;100.00
21100;BME280;10708;50.824;4.408;2023-04-02T10:10:50;101138.81;;;5.49;100.00
21100;BME280;10708;50.824;4.408;2023-04-02T10:15:59;101148.34;;;5.56;100.00
21100;BME280;10708;50.824;4.408;2023-04-02T10:21:04;101161.44;;;5.47;100.00
21100;BME280;10708;50.824;4.408;2023-04-02T10:26:25;101161.50;;;5.32;100.00
21100;BME280;10708;50.824;4.408;2023-04-02T10:31:38;101181.38;;;5.62;100.00
21100;BME280;10708;50.824;4.408;2023-04-02T10:36:48;101177.94;;;5.58;100.00
21100;BME280;10708;50.824;4.408;2023-04-02T10:41:58;101186.66;;;5.57;100.00
21100;BME280;10708;50.824;4.408;2023-04-02T10:47:28;101194.44;;;5.60;100.00
21100;BME280;10708;50.824;4.408;2023-04-02T10:52:37;101209.28;;;5.58;100.00
21100;BME280;10708;50.824;4.408;2023-04-02T10:57:42;101203.16;;;5.64;100.00
21100;BME280;10708;50.824;4.408;2023-04-02T11:02:50;101210.06;;;5.74;100.00
21100;BME280;10708;50.824;4.408;2023-04-02T11:08:00;101213.47;;;5.94;100.00
21100;BME280;10708;50.824;4.408;2023-04-02T11:13:10;101224.72;;;6.04;100.00
21100;BME280;10708;50.824;4.408;2023-04-02T11:18:24;101237.69;;;6.19;100.00
21100;BME280;10708;50.824;4.408;2023-04-02T11:23:50;101252.53;;;6.18;100.00
21100;BME280;10708;50.824;4.408;2023-04-02T11:29:22;101241.34;;;5.97;100.00
21100;BME280;10708;50.824;4.408;2023-04-02T11:34:58;101248.38;;;5.88;100.00
21100;BME280;10708;50.824;4.408;2023-04-02T11:40:05;101254.44;;;5.84;100.00
21100;BME280;10708;50.824;4.408;2023-04-02T11:50:50;101274.47;;;5.95;100.00
21100;BME280;10708;50.824;4.408;2023-04-02T11:56:07;101278.81;;;5.99;100.00
21100;BME280;10708;50.824;4.408;2023-04-02T12:01:53;101286.66;;;5.99;100.00
21100;BME280;10708;50.824;4.408;2023-04-02T12:07:17;101299.75;;;5.92;100.00
21100;BME280;10708;50.824;4.408;2023-04-02T12:12:32;101303.13;;;6.13;100.00
21100;BME280;10708;50.824;4.408;2023-04-02T12:17:37;101312.72;;;6.11;100.00
21100;BME280;10708;50.824;4.408;2023-04-02T12:22:46;101324.09;;;6.05;100.00
21100;BME280;10708;50.824;4.408;2023-04-02T12:28:02;101323.22;;;6.05;100.00
21100;BME280;10708;50.824;4.408;2023-04-02T12:33:16;101332.81;;;6.01;100.00
21100;BME280;10708;50.824;4.408;2023-04-02T12:38:26;101344.13;;;6.08;100.00
21100;BME280;10708;50.824;4.408;2023-04-02T12:43:30;101344.03;;;6.24;100.00
21100;BME280;10708;50.824;4.408;2023-04-02T12:48:34;101348.41;;;6.25;100.00
21100;BME280;10708;50.824;4.408;2023-04-02T12:53:39;101343.97;;;6.37;100.00
21100;BME280;10708;50.824;4.408;2023-04-02T12:58:42;101351.81;;;6.38;100.00
21100;BME280;10708;50.824;4.408;2023-04-02T13:03:59;101352.72;;;6.31;100.00
21100;BME280;10708;50.824;4.408;2023-04-02T13:09:04;101362.25;;;6.41;100.00
21100;BME280;10708;50.824;4.408;2023-04-02T13:14:13;101365.72;;;6.40;100.00
21100;BME280;10708;50.824;4.408;2023-04-02T13:19:24;101367.53;;;6.37;100.00
21100;BME280;10708;50.824;4.408;2023-04-02T13:24:30;101368.28;;;6.49;100.00
21100;BME280;10708;50.824;4.408;2023-04-02T13:29:38;101377.88;;;6.56;100.00
21100;BME280;10708;50.824;4.408;2023-04-02T13:34:43;101382.28;;;6.48;100.00
21100;BME280;10708;50.824;4.408;2023-04-02T13:39:48;101396.16;;;6.59;100.00
21100;BME280;10708;50.824;4.408;2023-04-02T13:44:50;101395.25;;;6.62;100.00
21100;BME280;10708;50.824;4.408;2023-04-02T13:49:59;101396.13;;;6.62;100.00
21100;BME280;10708;50.824;4.408;2023-04-02T13:55:07;101403.19;;;6.53;100.00
21100;BME280;10708;50.824;4.408;2023-04-02T14:00:11;101402.25;;;6.63;100.00
21100;BME280;10708;50.824;4.408;2023-04-02T14:05:24;101423.28;;;6.48;100.00
21100;BME280;10708;50.824;4.408;2023-04-02T14:10:38;101418.00;;;6.51;100.00
21100;BME280;10708;50.824;4.408;2023-04-02T14:15:53;101430.22;;;6.55;100.00
21100;BME280;10708;50.824;4.408;2023-04-02T14:21:06;101431.19;;;6.33;100.00
21100;BME280;10708;50.824;4.408;2023-04-02T14:26:19;101438.16;;;6.30;100.00
21100;BME280;10708;50.824;4.408;2023-04-02T14:31:30;101453.00;;;6.32;100.00
21100;BME280;10708;50.824;4.408;2023-04-02T14:36:42;101454.78;;;6.23;100.00
21100;BME280;10708;50.824;4.408;2023-04-02T14:41:55;101458.25;;;6.27;100.00
21100;BME280;10708;50.824;4.408;2023-04-02T14:47:07;101449.53;;;6.25;100.00
21100;BME280;10708;50.824;4.408;2023-04-02T14:52:16;101471.34;;;6.22;100.00
21100;BME280;10708;50.824;4.408;2023-04-02T14:57:23;101482.66;;;6.35;100.00
21100;BME280;10708;50.824;4.408;2023-04-02T15:02:35;101478.25;;;6.40;100.00
21100;BME280;10708;50.824;4.408;2023-04-02T15:07:44;101491.41;;;6.28;100.00
21100;BME280;10708;50.824;4.408;2023-04-02T15:12:52;101486.13;;;6.31;100.00
21100;BME280;10708;50.824;4.408;2023-04-02T15:17:57;101487.03;;;6.22;100.00
21100;BME280;10708;50.824;4.408;2023-04-02T15:23:02;101476.56;;;6.25;100.00
21100;BME280;10708;50.824;4.408;2023-04-02T15:28:19;101494.03;;;6.28;100.00
21100;BME280;10708;50.824;4.408;2023-04-02T15:33:37;101507.13;;;6.16;100.00
21100;BME280;10708;50.824;4.408;2023-04-02T15:38:43;101501.06;;;6.05;100.00
21100;BME280;10708;50.824;4.408;2023-04-02T15:43:56;101507.13;;;6.14;100.00
21100;BME280;10708;50.824;4.408;2023-04-02T15:49:11;101514.09;;;6.17;100.00
21100;BME280;10708;50.824;4.408;2023-04-02T16:00:11;101524.56;;;6.12;100.00
21100;BME280;10708;50.824;4.408;2023-04-02T16:05:19;101521.94;;;6.15;100.00
21100;BME280;10708;50.824;4.408;2023-04-02T16:10:27;101532.41;;;6.14;100.00
21100;BME280;10708;50.824;4.408;2023-04-02T16:15:37;101546.34;;;6.22;100.00
21100;BME280;10708;50.824;4.408;2023-04-02T16:20:45;101543.75;;;6.17;100.00
21100;BME280;10708;50.824;4.408;2023-04-02T16:25:53;101561.16;;;6.24;100.00
21100;BME280;10708;50.824;4.408;2023-04-02T16:31:05;101569.00;;;6.21;100.00
21100;BME280;10708;50.824;4.408;2023-04-02T16:36:18;101570.69;;;6.41;100.00
21100;BME280;10708;50.824;4.408;2023-04-02T16:41:30;101583.78;;;6.41;100.00
21100;BME280;10708;50.824;4.408;2023-04-02T16:46:45;101577.72;;;6.31;100.00
21100;BME280;10708;50.824;4.408;2023-04-02T16:52:01;101584.72;;;6.18;100.00
21100;BME280;10708;50.824;4.408;2023-04-02T16:57:19;101599.53;;;6.25;100.00
21100;BME280;10708;50.824;4.408;2023-04-02T17:02:36;101598.66;;;6.22;100.00
21100;BME280;10708;50.824;4.408;2023-04-02T17:07:44;101602.16;;;6.15;100.00
21100;BME280;10708;50.824;4.408;2023-04-02T17:12:54;101610.88;;;6.15;100.00
21100;BME280;10708;50.824;4.408;2023-04-02T17:18:09;101621.34;;;6.18;100.00
21100;BME280;10708;50.824;4.408;2023-04-02T17:23:15;101637.03;;;6.18;100.00
21100;BME280;10708;50.824;4.408;2023-04-02T17:28:22;101637.03;;;6.05;100.00
21100;BME280;10708;50.824;4.408;2023-04-02T17:33:30;101645.75;;;6.04;100.00
21100;BME280;10708;50.824;4.408;2023-04-02T17:38:38;101654.47;;;6.12;100.00
21100;BME280;10708;50.824;4.408;2023-04-02T17:43:48;101661.44;;;6.14;100.00
21100;BME280;10708;50.824;4.408;2023-04-02T17:48:58;101668.41;;;6.24;100.00
21100;BME280;10708;50.824;4.408;2023-04-02T17:54:13;101671.03;;;6.14;100.00
21100;BME280;10708;50.824;4.408;2023-04-02T17:59:29;101676.28;;;6.06;100.00
21100;BME280;10708;50.824;4.408;2023-04-02T18:04:41;101688.47;;;6.06;100.00
21100;BME280;10708;50.824;4.408;2023-04-02T18:10:00;101693.72;;;5.97;100.00
21100;BME280;10708;50.824;4.408;2023-04-02T18:15:18;101691.91;;;5.85;100.00
21100;BME280;10708;50.824;4.408;2023-04-02T18:20:31;101698.00;;;5.75;100.00
21100;BME280;10708;50.824;4.408;2023-04-02T18:25:44;101707.53;;;5.70;100.00
21100;BME280;10708;50.824;4.408;2023-04-02T18:30:56;101719.72;;;5.57;100.00
21100;BME280;10708;50.824;4.408;2023-04-02T18:36:05;101726.66;;;5.47;100.00
21100;BME280;10708;50.824;4.408;2023-04-02T18:41:25;101726.63;;;5.38;100.00
21100;BME280;10708;50.824;4.408;2023-04-02T18:46:38;101738.78;;;5.32;100.00
21100;BME280;10708;50.824;4.408;2023-04-02T18:51:48;101733.53;;;5.23;100.00
21100;BME280;10708;50.824;4.408;2023-04-02T18:56:52;101744.81;;;5.17;100.00
21100;BME280;10708;50.824;4.408;2023-04-02T19:01:55;101749.13;;;5.09;100.00
21100;BME280;10708;50.824;4.408;2023-04-02T19:07:04;101760.44;;;5.06;100.00
21100;BME280;10708;50.824;4.408;2023-04-02T19:12:14;101765.66;;;5.11;100.00
21100;BME280;10708;50.824;4.408;2023-04-02T19:17:24;101760.41;;;5.05;100.00
21100;BME280;10708;50.824;4.408;2023-04-02T19:22:38;101771.75;;;5.11;100.00
21100;BME280;10708;50.824;4.408;2023-04-02T19:27:54;101775.28;;;5.16;100.00
21100;BME280;10708;50.824;4.408;2023-04-02T19:33:05;101776.09;;;5.09;100.00
21100;BME280;10708;50.824;4.408;2023-04-02T19:38:25;101781.34;;;5.14;100.00
21100;BME280;10708;50.824;4.408;2023-04-02T19:43:37;101784.84;;;5.13;100.00
21100;BME280;10708;50.824;4.408;2023-04-02T19:48:46;101788.31;;;5.09;100.00
21100;BME280;10708;50.824;4.408;2023-04-02T19:53:53;101797.88;;;5.07;100.00
21100;BME280;10708;50.824;4.408;2023-04-02T19:58:57;101800.53;;;5.17;100.00
21100;BME280;10708;50.824;4.408;2023-04-02T20:03:59;101799.69;;;5.22;100.00
21100;BME280;10708;50.824;4.408;2023-04-02T20:09:05;101798.00;;;5.28;100.00
21100;BME280;10708;50.824;4.408;2023-04-02T20:14:08;101801.50;;;5.33;100.00
21100;BME280;10708;50.824;4.408;2023-04-02T20:19:11;101800.66;;;5.36;100.00
21100;BME280;10708;50.824;4.408;2023-04-02T20:24:14;101814.56;;;5.39;100.00
21100;BME280;10708;50.824;4.408;2023-04-02T20:29:17;101811.13;;;5.42;100.00
21100;BME280;10708;50.824;4.408;2023-04-02T20:34:19;101818.09;;;5.43;100.00
21100;BME280;10708;50.824;4.408;2023-04-02T20:39:23;101821.56;;;5.43;100.00
21100;BME280;10708;50.824;4.408;2023-04-02T20:44:26;101831.97;;;5.33;100.00
21100;BME280;10708;50.824;4.408;2023-04-02T20:49:29;101839.78;;;5.31;100.00
21100;BME280;10708;50.824;4.408;2023-04-02T20:54:33;101840.63;;;5.24;100.00
21100;BME280;10708;50.824;4.408;2023-04-02T20:59:38;101843.22;;;5.21;100.00
21100;BME280;10708;50.824;4.408;2023-04-02T21:04:40;101835.38;;;5.18;100.00
21100;BME280;10708;50.824;4.408;2023-04-02T21:09:45;101850.97;;;5.12;100.00
21100;BME280;10708;50.824;4.408;2023-04-02T21:14:48;101866.66;;;5.09;100.00
21100;BME280;10708;50.824;4.408;2023-04-02T21:19:56;101863.13;;;5.04;100.00
21100;BME280;10708;50.824;4.408;2023-04-02T21:25:00;101863.94;;;5.00;100.00
21100;BME280;10708;50.824;4.408;2023-04-02T21:30:03;101867.41;;;4.94;100.00
21100;BME280;10708;50.824;4.408;2023-04-02T21:35:07;101871.69;;;4.91;100.00
21100;BME280;10708;50.824;4.408;2023-04-02T21:40:11;101868.19;;;4.86;100.00
21100;BME280;10708;50.824;4.408;2023-04-02T21:45:14;101878.59;;;4.81;100.00
21100;BME280;10708;50.824;4.408;2023-04-02T21:50:17;101875.94;;;4.76;100.00
21100;BME280;10708;50.824;4.408;2023-04-02T21:55:20;101880.31;;;4.76;100.00
21100;BME280;10708;50.824;4.408;2023-04-02T22:00:23;101878.50;;;4.69;100.00
21100;BME280;10708;50.824;4.408;2023-04-02T22:05:26;101879.31;;;4.63;100.00
21100;BME280;10708;50.824;4.408;2023-04-02T22:10:34;101887.09;;;4.59;100.00
21100;BME280;10708;50.824;4.408;2023-04-02T22:15:37;101890.50;;;4.52;100.00
21100;BME280;10708;50.824;4.408;2023-04-02T22:20:39;101891.34;;;4.48;100.00
21100;BME280;10708;50.824;4.408;2023-04-02T22:25:43;101894.75;;;4.42;100.00
21100;BME280;10708;50.824;4.408;2023-04-02T22:30:46;101893.81;;;4.35;100.00
21100;BME280;10708;50.824;4.408;2023-04-02T22:35:49;101885.06;;;4.29;100.00
21100;BME280;10708;50.824;4.408;2023-04-02T22:41:04;101894.53;;;4.24;100.00
21100;BME280;10708;50.824;4.408;2023-04-02T22:46:08;101892.72;;;4.15;100.00
21100;BME280;10708;50.824;4.408;2023-04-02T22:51:14;101895.25;;;4.09;100.00
21100;BME280;10708;50.824;4.408;2023-04-02T22:56:23;101891.69;;;4.02;100.00
21100;BME280;10708;50.824;4.408;2023-04-02T23:01:28;101897.75;;;3.98;100.00
21100;BME280;10708;50.824;4.408;2023-04-02T23:06:32;101892.41;;;3.91;100.00
21100;BME280;10708;50.824;4.408;2023-04-02T23:11:36;101895.84;;;3.87;100.00
21100;BME280;10708;50.824;4.408;2023-04-02T23:16:38;101890.56;;;3.82;100.00
21100;BME280;10708;50.824;4.408;2023-04-02T23:21:41;101889.66;;;3.79;100.00
21100;BME280;10708;50.824;4.408;2023-04-02T23:26:44;101897.44;;;3.76;100.00
21100;BME280;10708;50.824;4.408;2023-04-02T23:31:47;101901.69;;;3.70;100.00
21100;BME280;10708;50.824;4.408;2023-04-02T23:36:49;101898.13;;;3.64;100.00
21100;BME280;10708;50.824;4.408;2023-04-02T23:41:54;101898.06;;;3.59;100.00
21100;BME280;10708;50.824;4.408;2023-04-02T23:47:00;101906.75;;;3.58;100.00
21100;BME280;10708;50.824;4.408;2023-04-02T23:52:03;101906.81;;;3.63;100.00
21100;BME280;10708;50.824;4.408;2023-04-02T23:57:07;101905.03;;;3.60;100.00
